Time,TemperatureF,DewpointF,PressureIn,WindDirection,WindDirectionDegrees,WindSpeedMPH,WindSpeedGustMPH,Humidity,HourlyPrecipIn,Conditions,Clouds,dailyrainin,SoftwareType,DateUTC
2013-01-21 00:01:00,41.6,11.7,29.57,NW,315,0.0,1.0,29,0.00,,---,0.00,VWS V14.01,2013-01-21 08:01:00,
2013-01-21 00:06:00,41.9,12.0,29.57,NW,315,0.0,0.0,29,0.00,,---,0.00,VWS V14.01,2013-01-21 08:06:00,
2013-01-21 00:21:00,42.5,11.7,29.56,NW,315,0.0,0.0,28,0.00,,---,0.00,VWS V14.01,2013-01-21 08:21:00,
2013-01-21 00:31:00,41.2,12.1,29.56,NW,315,0.0,0.0,30,0.00,,---,0.00,VWS V14.01,2013-01-21 08:31:00,
2013-01-21 00:41:00,39.9,12.4,29.56,NW,315,0.0,0.0,32,0.00,,---,0.00,VWS V14.01,2013-01-21 08:41:00,
2013-01-21 00:46:00,39.8,12.4,29.57,NW,315,0.0,0.0,32,0.00,,---,0.00,VWS V14.01,2013-01-21 08:46:00,
2013-01-21 01:01:00,38.0,12.1,29.57,NW,315,0.0,0.0,34,0.00,,---,0.00,VWS V14.01,2013-01-21 09:01:00,
2013-01-21 01:11:00,37.9,12.7,29.57,NW,315,0.0,0.0,35,0.00,,---,0.00,VWS V14.01,2013-01-21 09:11:00,
2013-01-21 01:21:00,37.6,11.8,29.58,WNW,299,1.0,3.0,34,0.00,,---,0.00,VWS V14.01,2013-01-21 09:21:00,
2013-01-21 01:26:00,37.6,11.8,29.58,NNE,14,1.0,3.0,34,0.00,,---,0.00,VWS V14.01,2013-01-21 09:26:00,
2013-01-21 01:46:00,38.2,11.6,29.58,East,85,0.0,0.0,33,0.00,,---,0.00,VWS V14.01,2013-01-21 09:46:00,
2013-01-21 01:51:00,37.9,12.1,29.58,East,82,0.0,0.0,34,0.00,,---,0.00,VWS V14.01,2013-01-21 09:51:00,
2013-01-21 02:01:00,37.3,12.2,29.58,WNW,285,1.0,2.0,35,0.00,,---,0.00,VWS V14.01,2013-01-21 10:01:00,
2013-01-21 02:06:00,36.8,11.7,29.58,WNW,285,0.0,1.0,35,0.00,,---,0.00,VWS V14.01,2013-01-21 10:06:00,
2013-01-21 02:11:00,37.2,12.7,29.58,WNW,285,0.0,1.0,36,0.00,,---,0.00,VWS V14.01,2013-01-21 10:11:00,
2013-01-21 02:21:00,37.8,12.0,29.58,WNW,285,0.0,1.0,34,0.00,,---,0.00,VWS V14.01,2013-01-21 10:21:00,
2013-01-21 02:31:00,37.6,12.4,29.58,WNW,285,0.0,1.0,35,0.00,,---,0.00,VWS V14.01,2013-01-21 10:31:00,
2013-01-21 02:36:00,37.0,12.5,29.58,WNW,285,0.0,0.0,36,0.00,,---,0.00,VWS V14.01,2013-01-21 10:36:00,
2013-01-21 02:51:00,37.0,11.9,29.59,WNW,285,0.0,0.0,35,0.00,,---,0.00,VWS V14.01,2013-01-21 10:51:00,
2013-01-21 03:06:00,36.6,11.6,29.58,North,0,5.0,7.0,35,0.00,,---,0.00,VWS V14.01,2013-01-21 11:06:00,
2013-01-21 03:11:00,37.0,11.9,29.58,North,0,3.0,5.0,35,0.00,,---,0.00,VWS V14.01,2013-01-21 11:11:00,
2013-01-21 03:21:00,39.5,10.6,29.57,NNE,16,0.0,0.0,30,0.00,,---,0.00,VWS V14.01,2013-01-21 11:21:00,
2013-01-21 03:31:00,38.3,12.4,29.57,NW,304,0.0,0.0,34,0.00,,---,0.00,VWS V14.01,2013-01-21 11:31:00,
2013-01-21 03:46:00,35.9,12.8,29.58,WNW,298,0.0,1.0,38,0.00,,---,0.00,VWS V14.01,2013-01-21 11:46:00,
2013-01-21 03:56:00,35.0,12.6,29.58,WNW,298,0.0,0.0,39,0.00,,---,0.00,VWS V14.01,2013-01-21 11:56:00,
2013-01-21 04:01:00,35.0,12.0,29.58,WNW,298,0.0,0.0,38,0.00,,---,0.00,VWS V14.01,2013-01-21 12:01:00,
2013-01-21 04:06:00,34.6,12.2,29.58,WNW,298,0.0,0.0,39,0.00,,---,0.00,VWS V14.01,2013-01-21 12:06:00,
2013-01-21 04:16:00,34.1,12.3,29.60,WNW,298,0.0,0.0,40,0.00,,---,0.00,VWS V14.01,2013-01-21 12:16:00,
2013-01-21 04:21:00,34.3,12.5,29.60,WNW,298,0.0,0.0,40,0.00,,---,0.00,VWS V14.01,2013-01-21 12:21:00,
2013-01-21 04:31:00,34.9,12.5,29.60,WNW,298,0.0,0.0,39,0.00,,---,0.00,VWS V14.01,2013-01-21 12:31:00,
2013-01-21 04:36:00,35.2,12.1,29.60,WNW,298,0.0,0.0,38,0.00,,---,0.00,VWS V14.01,2013-01-21 12:36:00,
2013-01-21 04:41:00,35.8,11.5,29.60,WNW,298,2.0,2.0,36,0.00,,---,0.00,VWS V14.01,2013-01-21 12:41:00,
2013-01-21 04:51:00,36.5,11.5,29.60,NW,304,0.0,1.0,35,0.00,,---,0.00,VWS V14.01,2013-01-21 12:51:00,
2013-01-21 05:01:00,35.8,12.1,29.60,NW,304,0.0,0.0,37,0.00,,---,0.00,VWS V14.01,2013-01-21 13:01:00,
2013-01-21 05:06:00,35.2,11.6,29.60,NW,304,0.0,0.0,37,0.00,,---,0.00,VWS V14.01,2013-01-21 13:06:00,
2013-01-21 05:11:00,34.6,11.6,29.60,NW,304,0.0,0.0,38,0.00,,---,0.00,VWS V14.01,2013-01-21 13:11:00,
2013-01-21 05:21:00,33.7,11.4,29.62,NW,304,0.0,0.0,39,0.00,,---,0.00,VWS V14.01,2013-01-21 13:21:00,
2013-01-21 05:26:00,33.8,12.1,29.62,NW,304,0.0,0.0,40,0.00,,---,0.00,VWS V14.01,2013-01-21 13:26:00,
2013-01-21 05:36:00,34.7,12.3,29.62,NW,304,0.0,3.0,39,0.00,,---,0.00,VWS V14.01,2013-01-21 13:36:00,
2013-01-21 05:46:00,34.9,11.3,29.61,NW,304,2.0,2.0,37,0.00,,---,0.00,VWS V14.01,2013-01-21 13:46:00,
2013-01-21 05:51:00,34.7,11.1,29.61,NW,304,0.0,2.0,37,0.00,,---,0.00,VWS V14.01,2013-01-21 13:51:00,
2013-01-21 06:01:00,33.8,11.5,29.62,NW,304,0.0,0.0,39,0.00,,---,0.00,VWS V14.01,2013-01-21 14:01:00,
2013-01-21 06:06:00,33.7,11.4,29.62,NW,304,0.0,0.0,39,0.00,,---,0.00,VWS V14.01,2013-01-21 14:06:00,
2013-01-21 06:11:00,33.7,10.8,29.62,NW,304,0.0,0.0,38,0.00,,---,0.00,VWS V14.01,2013-01-21 14:11:00,
2013-01-21 06:21:00,33.7,10.2,29.64,NW,304,0.0,0.0,37,0.00,,---,0.00,VWS V14.01,2013-01-21 14:21:00,
2013-01-21 06:26:00,33.5,10.6,29.64,NW,304,0.0,0.0,38,0.00,,---,0.00,VWS V14.01,2013-01-21 14:26:00,
2013-01-21 06:31:00,33.5,11.2,29.64,NW,304,0.0,0.0,39,0.00,,---,0.00,VWS V14.01,2013-01-21 14:31:00,
2013-01-21 06:36:00,33.7,11.4,29.64,NW,304,0.0,0.0,39,0.00,,---,0.00,VWS V14.01,2013-01-21 14:36:00,
2013-01-21 06:46:00,32.8,10.6,29.64,NW,312,1.0,5.0,39,0.00,,---,0.00,VWS V14.01,2013-01-21 14:46:00,
2013-01-21 06:56:00,32.8,10.6,29.64,NW,312,0.0,0.0,39,0.00,,---,0.00,VWS V14.01,2013-01-21 14:56:00,
2013-01-21 07:01:00,32.9,11.2,29.64,NW,312,0.0,0.0,40,0.00,,---,0.00,VWS V14.01,2013-01-21 15:01:00,
2013-01-21 07:11:00,32.8,11.1,29.64,NW,312,0.0,1.0,40,0.00,,---,0.00,VWS V14.01,2013-01-21 15:11:00,
2013-01-21 07:21:00,33.2,10.4,29.66,NW,312,0.0,0.0,38,0.00,,---,0.00,VWS V14.01,2013-01-21 15:21:00,
2013-01-21 07:26:00,34.0,9.9,29.66,NW,312,0.0,0.0,36,0.00,,---,0.00,VWS V14.01,2013-01-21 15:26:00,
2013-01-21 07:36:00,34.7,10.5,29.66,NW,312,0.0,1.0,36,0.00,,---,0.00,VWS V14.01,2013-01-21 15:36:00,
2013-01-21 07:41:00,35.2,10.9,29.66,NW,312,0.0,2.0,36,0.00,,---,0.00,VWS V14.01,2013-01-21 15:41:00,
2013-01-21 07:51:00,37.2,10.8,29.66,NW,312,0.0,0.0,33,0.00,,---,0.00,VWS V14.01,2013-01-21 15:51:00,
2013-01-21 08:01:00,40.5,13.0,29.65,NW,312,0.0,0.0,32,0.00,,---,0.00,VWS V14.01,2013-01-21 16:01:00,
2013-01-21 08:06:00,41.1,13.5,29.65,NW,312,0.0,1.0,32,0.00,,---,0.00,VWS V14.01,2013-01-21 16:06:00,
2013-01-21 08:11:00,41.5,10.8,29.65,NW,312,0.0,0.0,28,0.00,,---,0.00,VWS V14.01,2013-01-21 16:11:00,
2013-01-21 08:16:00,41.8,10.3,29.66,NW,312,0.0,1.0,27,0.00,,---,0.00,VWS V14.01,2013-01-21 16:16:00,
2013-01-21 08:21:00,42.5,11.7,29.66,NW,312,0.0,1.0,28,0.00,,---,0.00,VWS V14.01,2013-01-21 16:21:00,
2013-01-21 08:26:00,43.6,11.0,29.66,NW,312,0.0,0.0,26,0.00,,---,0.00,VWS V14.01,2013-01-21 16:26:00,
2013-01-21 08:36:00,45.2,11.5,29.66,NW,312,0.0,0.0,25,0.00,,---,0.00,VWS V14.01,2013-01-21 16:36:00,
2013-01-21 08:46:00,46.5,10.7,29.66,NW,311,0.0,0.0,23,0.00,,---,0.00,VWS V14.01,2013-01-21 16:46:00,
2013-01-21 08:51:00,47.7,11.7,29.66,NW,311,0.0,0.0,23,0.00,,---,0.00,VWS V14.01,2013-01-21 16:51:00,
2013-01-21 09:01:00,49.8,11.4,29.66,NW,311,0.0,0.0,21,0.00,,---,0.00,VWS V14.01,2013-01-21 17:01:00,
2013-01-21 09:06:00,49.4,12.2,29.66,NW,312,0.0,1.0,22,0.00,,---,0.00,VWS V14.01,2013-01-21 17:06:00,
2013-01-21 09:16:00,49.2,10.9,29.67,NW,311,0.0,0.0,21,0.00,,---,0.00,VWS V14.01,2013-01-21 17:16:00,
2013-01-21 09:26:00,50.7,12.2,29.67,WNW,284,0.0,2.0,21,0.00,,---,0.00,VWS V14.01,2013-01-21 17:26:00,
2013-01-21 09:31:00,51.3,12.7,29.67,WSW,257,2.0,2.0,21,0.00,,---,0.00,VWS V14.01,2013-01-21 17:31:00,
2013-01-21 09:41:00,52.8,12.9,29.67,SW,229,2.0,2.0,20,0.00,,---,0.00,VWS V14.01,2013-01-21 17:41:00,
2013-01-21 09:46:00,52.9,12.9,29.67,SW,219,0.0,3.0,20,0.00,,---,0.00,VWS V14.01,2013-01-21 17:46:00,
2013-01-21 09:51:00,53.1,11.9,29.67,SW,219,5.0,5.0,19,0.00,,---,0.00,VWS V14.01,2013-01-21 17:51:00,
2013-01-21 09:56:00,53.8,11.3,29.67,SSE,158,2.0,5.0,18,0.00,,---,0.00,VWS V14.01,2013-01-21 17:56:00,
2013-01-21 10:01:00,54.5,10.6,29.66,SE,145,0.0,2.0,17,0.00,,---,0.00,VWS V14.01,2013-01-21 18:01:00,
2013-01-21 10:11:00,55.1,9.7,29.66,SE,138,0.0,2.0,16,0.00,,---,0.00,VWS V14.01,2013-01-21 18:11:00,
2013-01-21 10:21:00,56.6,9.5,29.66,SE,137,0.0,2.0,15,0.00,,---,0.00,VWS V14.01,2013-01-21 18:21:00,
2013-01-21 10:26:00,57.0,9.8,29.66,SE,136,0.0,2.0,15,0.00,,---,0.00,VWS V14.01,2013-01-21 18:26:00,
2013-01-21 10:31:00,57.5,10.2,29.65,SE,136,0.0,0.0,15,0.00,,---,0.00,VWS V14.01,2013-01-21 18:31:00,
2013-01-21 10:36:00,58.0,10.6,29.65,SE,136,0.0,0.0,15,0.00,,---,0.00,VWS V14.01,2013-01-21 18:36:00,
2013-01-21 10:46:00,58.0,10.6,29.63,SE,136,0.0,2.0,15,0.00,,---,0.00,VWS V14.01,2013-01-21 18:46:00,
2013-01-21 10:51:00,57.8,10.5,29.63,SE,131,0.0,1.0,15,0.00,,---,0.00,VWS V14.01,2013-01-21 18:51:00,
2013-01-21 11:01:00,59.3,10.1,29.62,SE,131,0.0,1.0,14,0.00,,---,0.00,VWS V14.01,2013-01-21 19:01:00,
2013-01-21 11:11:00,58.7,11.2,29.62,ESE,109,1.0,1.0,15,0.00,,---,0.00,VWS V14.01,2013-01-21 19:11:00,
2013-01-21 11:21:00,58.6,9.6,29.62,East,97,0.0,1.0,14,0.00,,---,0.00,VWS V14.01,2013-01-21 19:21:00,
2013-01-21 11:31:00,59.2,10.1,29.61,SE,137,0.0,2.0,14,0.00,,---,0.00,VWS V14.01,2013-01-21 19:31:00,
2013-01-21 11:36:00,59.8,10.5,29.61,SE,131,0.0,1.0,14,0.00,,---,0.00,VWS V14.01,2013-01-21 19:36:00,
2013-01-21 11:41:00,59.6,10.4,29.61,SE,130,0.0,1.0,14,0.00,,---,0.00,VWS V14.01,2013-01-21 19:41:00,
2013-01-21 11:51:00,60.5,9.4,29.60,SW,222,2.0,5.0,13,0.00,,---,0.00,VWS V14.01,2013-01-21 19:51:00,
2013-01-21 11:56:00,60.5,9.4,29.60,SW,220,1.0,4.0,13,0.00,,---,0.00,VWS V14.01,2013-01-21 19:56:00,
2013-01-21 12:01:00,61.2,10.0,29.59,SW,220,2.0,2.0,13,0.00,,---,0.00,VWS V14.01,2013-01-21 20:01:00,
2013-01-21 12:06:00,61.3,10.1,29.59,West,280,0.0,2.0,13,0.00,,---,0.00,VWS V14.01,2013-01-21 20:06:00,
2013-01-21 12:11:00,61.6,10.3,29.59,West,280,0.0,2.0,13,0.00,,---,0.00,VWS V14.01,2013-01-21 20:11:00,
2013-01-21 12:21:00,62.4,10.9,29.58,West,280,0.0,2.0,13,0.00,,---,0.00,VWS V14.01,2013-01-21 20:21:00,
2013-01-21 12:26:00,62.6,9.3,29.58,West,280,0.0,0.0,12,0.00,,---,0.00,VWS V14.01,2013-01-21 20:26:00,
2013-01-21 12:31:00,63.2,9.8,29.57,WSW,243,0.0,1.0,12,0.00,,---,0.00,VWS V14.01,2013-01-21 20:31:00,
2013-01-21 12:36:00,64.0,10.4,29.57,WSW,243,0.0,0.0,12,0.00,,---,0.00,VWS V14.01,2013-01-21 20:36:00,
2013-01-21 12:46:00,64.0,10.4,29.56,WSW,243,0.0,2.0,12,0.00,,---,0.00,VWS V14.01,2013-01-21 20:46:00,
2013-01-21 12:56:00,64.7,10.9,29.56,West,270,0.0,0.0,12,0.00,,---,0.00,VWS V14.01,2013-01-21 20:56:00,
2013-01-21 13:01:00,65.6,11.6,29.55,SE,141,0.0,0.0,12,0.00,,---,0.00,VWS V14.01,2013-01-21 21:01:00,
2013-01-21 13:06:00,66.1,10.1,29.55,SE,141,0.0,0.0,11,0.00,,---,0.00,VWS V14.01,2013-01-21 21:06:00,
2013-01-21 13:11:00,66.4,10.3,29.55,SE,141,0.0,0.0,11,0.00,,---,0.00,VWS V14.01,2013-01-21 21:11:00,
2013-01-21 13:16:00,66.6,10.5,29.54,WNW,285,3.0,4.0,11,0.00,,---,0.00,VWS V14.01,2013-01-21 21:16:00,
2013-01-21 13:21:00,65.6,9.7,29.54,SSE,168,0.0,3.0,11,0.00,,---,0.00,VWS V14.01,2013-01-21 21:21:00,
2013-01-21 13:31:00,64.7,10.9,29.54,SE,144,0.0,2.0,12,0.00,,---,0.00,VWS V14.01,2013-01-21 21:31:00,
2013-01-21 13:36:00,64.7,10.9,29.54,SE,144,0.0,0.0,12,0.00,,---,0.00,VWS V14.01,2013-01-21 21:36:00,
2013-01-21 13:41:00,65.8,11.8,29.54,SE,144,0.0,0.0,12,0.00,,---,0.00,VWS V14.01,2013-01-21 21:41:00,
2013-01-21 13:51:00,65.6,9.7,29.53,SE,127,0.0,0.0,11,0.00,,---,0.00,VWS V14.01,2013-01-21 21:51:00,
2013-01-21 14:01:00,65.0,9.2,29.53,SE,145,1.0,2.0,11,0.00,,---,0.00,VWS V14.01,2013-01-21 22:01:00,
2013-01-21 14:06:00,65.0,9.2,29.53,SE,128,0.0,6.0,11,0.00,,---,0.00,VWS V14.01,2013-01-21 22:06:00,
2013-01-21 14:11:00,65.0,9.2,29.53,SE,127,0.0,1.0,11,0.00,,---,0.00,VWS V14.01,2013-01-21 22:11:00,
2013-01-21 14:21:00,65.8,9.9,29.53,ESE,120,0.0,0.0,11,0.00,,---,0.00,VWS V14.01,2013-01-21 22:21:00,
2013-01-21 14:31:00,65.3,9.5,29.52,ENE,71,2.0,2.0,11,0.00,,---,0.00,VWS V14.01,2013-01-21 22:31:00,
2013-01-21 14:41:00,64.7,9.0,29.52,ENE,72,2.0,5.0,11,0.00,,---,0.00,VWS V14.01,2013-01-21 22:41:00,
2013-01-21 14:46:00,64.8,9.1,29.51,ENE,75,0.0,3.0,11,0.00,,---,0.00,VWS V14.01,2013-01-21 22:46:00,
2013-01-21 14:56:00,65.6,9.7,29.51,ENE,72,1.0,2.0,11,0.00,,---,0.00,VWS V14.01,2013-01-21 22:56:00,
2013-01-21 15:01:00,66.0,10.0,29.51,SE,124,0.0,1.0,11,0.00,,---,0.00,VWS V14.01,2013-01-21 23:01:00,
2013-01-21 15:06:00,66.6,10.5,29.51,SE,124,0.0,1.0,11,0.00,,---,0.00,VWS V14.01,2013-01-21 23:06:00,
2013-01-21 15:16:00,66.9,10.7,29.51,SE,141,0.0,0.0,11,0.00,,---,0.00,VWS V14.01,2013-01-21 23:16:00,
2013-01-21 15:26:00,67.1,10.9,29.51,SE,141,0.0,0.0,11,0.00,,---,0.00,VWS V14.01,2013-01-21 23:26:00,
2013-01-21 15:31:00,67.3,11.0,29.51,SE,141,0.0,0.0,11,0.00,,---,0.00,VWS V14.01,2013-01-21 23:31:00,
2013-01-21 15:36:00,66.8,10.6,29.51,SE,140,0.0,0.0,11,0.00,,---,0.00,VWS V14.01,2013-01-21 23:36:00,
2013-01-21 15:46:00,66.3,10.2,29.51,SE,140,0.0,0.0,11,0.00,,---,0.00,VWS V14.01,2013-01-21 23:46:00,
2013-01-21 15:51:00,66.4,10.3,29.51,SE,140,0.0,0.0,11,0.00,,---,0.00,VWS V14.01,2013-01-21 23:51:00,
2013-01-21 15:56:00,66.6,10.5,29.51,SE,141,0.0,0.0,11,0.00,,---,0.00,VWS V14.01,2013-01-21 23:56:00,
2013-01-21 16:06:00,66.1,10.1,29.52,ESE,110,0.0,0.0,11,0.00,,---,0.00,VWS V14.01,2013-01-22 00:06:00,
2013-01-21 16:11:00,66.1,10.1,29.52,ESE,110,0.0,0.0,11,0.00,,---,0.00,VWS V14.01,2013-01-22 00:11:00,
2013-01-21 16:21:00,65.6,11.6,29.51,East,100,0.0,0.0,12,0.00,,---,0.00,VWS V14.01,2013-01-22 00:21:00,
2013-01-21 16:26:00,65.2,11.3,29.51,East,99,0.0,0.0,12,0.00,,---,0.00,VWS V14.01,2013-01-22 00:26:00,
2013-01-21 16:31:00,64.7,10.9,29.50,East,97,0.0,0.0,12,0.00,,---,0.00,VWS V14.01,2013-01-22 00:31:00,
2013-01-21 16:41:00,64.5,10.8,29.50,East,97,0.0,0.0,12,0.00,,---,0.00,VWS V14.01,2013-01-22 00:41:00,
2013-01-21 16:46:00,64.3,12.4,29.51,East,97,0.0,0.0,13,0.00,,---,0.00,VWS V14.01,2013-01-22 00:46:00,
2013-01-21 16:51:00,64.2,12.4,29.51,East,97,0.0,0.0,13,0.00,,---,0.00,VWS V14.01,2013-01-22 00:51:00,
2013-01-21 17:01:00,63.2,13.2,29.51,East,97,0.0,0.0,14,0.00,,---,0.00,VWS V14.01,2013-01-22 01:01:00,
2013-01-21 17:11:00,62.1,12.4,29.51,East,97,0.0,0.0,14,0.00,,---,0.00,VWS V14.01,2013-01-22 01:11:00,
2013-01-21 17:21:00,61.2,13.2,29.52,East,97,0.0,0.0,15,0.00,,---,0.00,VWS V14.01,2013-01-22 01:21:00,
2013-01-21 17:26:00,60.5,12.6,29.52,East,96,0.0,0.0,15,0.00,,---,0.00,VWS V14.01,2013-01-22 01:26:00,
2013-01-21 17:31:00,59.9,13.6,29.52,East,96,0.0,0.0,16,0.00,,---,0.00,VWS V14.01,2013-01-22 01:31:00,
2013-01-21 17:36:00,59.3,13.1,29.52,East,96,0.0,0.0,16,0.00,,---,0.00,VWS V14.01,2013-01-22 01:36:00,
2013-01-21 17:41:00,58.9,14.2,29.52,East,96,0.0,0.0,17,0.00,,---,0.00,VWS V14.01,2013-01-22 01:41:00,
2013-01-21 17:51:00,57.8,13.3,29.53,East,96,0.0,0.0,17,0.00,,---,0.00,VWS V14.01,2013-01-22 01:51:00,
2013-01-21 18:01:00,56.5,13.5,29.53,East,96,0.0,0.0,18,0.00,,---,0.00,VWS V14.01,2013-01-22 02:01:00,
2013-01-21 18:06:00,55.7,12.9,29.53,North,350,1.0,2.0,18,0.00,,---,0.00,VWS V14.01,2013-01-22 02:06:00,
2013-01-21 18:16:00,55.1,13.6,29.54,NNW,340,1.0,1.0,19,0.00,,---,0.00,VWS V14.01,2013-01-22 02:16:00,
2013-01-21 18:26:00,54.8,13.4,29.54,NNW,340,1.0,2.0,19,0.00,,---,0.00,VWS V14.01,2013-01-22 02:26:00,
2013-01-21 18:31:00,54.5,13.1,29.54,NNW,340,1.0,2.0,19,0.00,,---,0.00,VWS V14.01,2013-01-22 02:31:00,
2013-01-21 18:36:00,54.1,12.8,29.54,NNW,340,1.0,1.0,19,0.00,,---,0.00,VWS V14.01,2013-01-22 02:36:00,
2013-01-21 18:41:00,53.8,13.7,29.54,NNW,340,0.0,2.0,20,0.00,,---,0.00,VWS V14.01,2013-01-22 02:41:00,
2013-01-21 18:51:00,53.2,13.2,29.55,NNW,342,0.0,1.0,20,0.00,,---,0.00,VWS V14.01,2013-01-22 02:51:00,
2013-01-21 18:56:00,52.6,13.8,29.55,NNW,342,0.0,0.0,21,0.00,,---,0.00,VWS V14.01,2013-01-22 02:56:00,
2013-01-21 19:06:00,51.9,13.2,29.55,NNW,342,0.0,0.0,21,0.00,,---,0.00,VWS V14.01,2013-01-22 03:06:00,
2013-01-21 19:11:00,51.4,13.9,29.55,NNW,342,0.0,0.0,22,0.00,,---,0.00,VWS V14.01,2013-01-22 03:11:00,
2013-01-21 19:16:00,51.0,13.5,29.53,NNW,342,0.0,0.0,22,0.00,,---,0.00,VWS V14.01,2013-01-22 03:16:00,
2013-01-21 19:21:00,50.5,14.1,29.53,NNW,342,0.0,0.0,23,0.00,,---,0.00,VWS V14.01,2013-01-22 03:21:00,
2013-01-21 19:26:00,50.2,13.9,29.53,NNW,342,0.0,0.0,23,0.00,,---,0.00,VWS V14.01,2013-01-22 03:26:00,
2013-01-21 19:36:00,50.2,12.8,29.53,NNW,342,0.0,1.0,22,0.00,,---,0.00,VWS V14.01,2013-01-22 03:36:00,
2013-01-21 19:41:00,49.6,13.3,29.53,NNW,342,0.0,0.0,23,0.00,,---,0.00,VWS V14.01,2013-01-22 03:41:00,
2013-01-21 19:46:00,49.2,13.0,29.54,NNW,342,0.0,0.0,23,0.00,,---,0.00,VWS V14.01,2013-01-22 03:46:00,
2013-01-21 19:56:00,48.5,12.4,29.54,NNW,342,0.0,0.0,23,0.00,,---,0.00,VWS V14.01,2013-01-22 03:56:00,
2013-01-21 20:01:00,47.7,12.7,29.55,NNW,342,0.0,0.0,24,0.00,,---,0.00,VWS V14.01,2013-01-22 04:01:00,
2013-01-21 20:06:00,47.0,13.0,29.55,NNW,342,0.0,0.0,25,0.00,,---,0.00,VWS V14.01,2013-01-22 04:06:00,
2013-01-21 20:11:00,47.0,13.0,29.55,WSW,250,1.0,2.0,25,0.00,,---,0.00,VWS V14.01,2013-01-22 04:11:00,
2013-01-21 20:21:00,47.6,11.6,29.53,WSW,250,0.0,0.0,23,0.00,,---,0.00,VWS V14.01,2013-01-22 04:21:00,
2013-01-21 20:26:00,47.7,11.7,29.53,West,268,0.0,1.0,23,0.00,,---,0.00,VWS V14.01,2013-01-22 04:26:00,
2013-01-21 20:36:00,47.9,11.9,29.52,West,268,0.0,0.0,23,0.00,,---,0.00,VWS V14.01,2013-01-22 04:36:00,
2013-01-21 20:41:00,47.7,11.7,29.52,West,268,0.0,0.0,23,0.00,,---,0.00,VWS V14.01,2013-01-22 04:41:00,
2013-01-21 20:51:00,46.2,12.3,29.53,West,268,0.0,0.0,25,0.00,,---,0.00,VWS V14.01,2013-01-22 04:51:00,
2013-01-21 20:56:00,45.2,12.4,29.53,West,268,0.0,1.0,26,0.00,,---,0.00,VWS V14.01,2013-01-22 04:56:00,
2013-01-21 21:06:00,44.6,13.5,29.55,West,268,0.0,0.0,28,0.00,,---,0.00,VWS V14.01,2013-01-22 05:06:00,
2013-01-21 21:11:00,44.8,12.0,29.55,West,268,0.0,0.0,26,0.00,,---,0.00,VWS V14.01,2013-01-22 05:11:00,
2013-01-21 21:16:00,44.9,13.0,29.54,West,268,0.0,1.0,27,0.00,,---,0.00,VWS V14.01,2013-01-22 05:16:00,
2013-01-21 21:21:00,45.2,13.2,29.54,West,268,0.0,0.0,27,0.00,,---,0.00,VWS V14.01,2013-01-22 05:21:00,
2013-01-21 21:26:00,45.4,13.4,29.54,West,268,0.0,0.0,27,0.00,,---,0.00,VWS V14.01,2013-01-22 05:26:00,
2013-01-21 21:31:00,45.4,12.5,29.55,West,268,0.0,1.0,26,0.00,,---,0.00,VWS V14.01,2013-01-22 05:31:00,
2013-01-21 21:36:00,45.7,11.9,29.55,West,268,0.0,2.0,25,0.00,,---,0.00,VWS V14.01,2013-01-22 05:36:00,
2013-01-21 21:41:00,46.0,12.2,29.55,West,268,0.0,2.0,25,0.00,,---,0.00,VWS V14.01,2013-01-22 05:41:00,
2013-01-21 21:46:00,46.2,12.3,29.55,West,268,0.0,1.0,25,0.00,,---,0.00,VWS V14.01,2013-01-22 05:46:00,
2013-01-21 21:51:00,46.1,13.1,29.55,West,268,0.0,0.0,26,0.00,,---,0.00,VWS V14.01,2013-01-22 05:51:00,
2013-01-21 21:56:00,45.7,11.9,29.55,West,268,0.0,0.0,25,0.00,,---,0.00,VWS V14.01,2013-01-22 05:56:00,
2013-01-21 22:01:00,44.6,11.9,29.56,West,268,0.0,0.0,26,0.00,,---,0.00,VWS V14.01,2013-01-22 06:01:00,
2013-01-21 22:06:00,43.9,11.2,29.56,West,270,1.0,1.0,26,0.00,,---,0.00,VWS V14.01,2013-01-22 06:06:00,
2013-01-21 22:11:00,43.6,11.0,29.56,West,272,0.0,1.0,26,0.00,,---,0.00,VWS V14.01,2013-01-22 06:11:00,
2013-01-21 22:21:00,44.2,10.6,29.56,West,277,0.0,1.0,25,0.00,,---,0.00,VWS V14.01,2013-01-22 06:21:00,
2013-01-21 22:31:00,43.3,9.9,29.55,West,277,1.0,2.0,25,0.00,,---,0.00,VWS V14.01,2013-01-22 06:31:00,
2013-01-21 22:36:00,43.2,9.8,29.55,WNW,282,1.0,2.0,25,0.00,,---,0.00,VWS V14.01,2013-01-22 06:36:00,
2013-01-21 22:41:00,42.9,9.5,29.55,WNW,282,0.0,2.0,25,0.00,,---,0.00,VWS V14.01,2013-01-22 06:41:00,
2013-01-21 22:51:00,42.6,9.3,29.56,WNW,282,0.0,1.0,25,0.00,,---,0.00,VWS V14.01,2013-01-22 06:51:00,
2013-01-21 22:56:00,42.6,9.3,29.56,WNW,282,0.0,2.0,25,0.00,,---,0.00,VWS V14.01,2013-01-22 06:56:00,
2013-01-21 23:01:00,42.6,9.3,29.56,WNW,282,0.0,1.0,25,0.00,,---,0.00,VWS V14.01,2013-01-22 07:01:00,
2013-01-21 23:11:00,42.3,9.0,29.56,WNW,282,1.0,2.0,25,0.00,,---,0.00,VWS V14.01,2013-01-22 07:11:00,
2013-01-21 23:16:00,43.1,8.8,29.55,NNW,333,3.0,3.0,24,0.00,,---,0.00,VWS V14.01,2013-01-22 07:16:00,
2013-01-21 23:26:00,44.1,8.7,29.55,North,349,1.0,1.0,23,0.00,,---,0.00,VWS V14.01,2013-01-22 07:26:00,
2013-01-21 23:36:00,43.3,8.9,29.55,NNW,347,0.0,0.0,24,0.00,,---,0.00,VWS V14.01,2013-01-22 07:36:00,
2013-01-21 23:46:00,42.2,9.8,29.56,SSW,212,0.0,0.0,26,0.00,,---,0.00,VWS V14.01,2013-01-22 07:46:00,
2013-01-21 23:51:00,41.8,10.3,29.56,SSW,210,0.0,0.0,27,0.00,,---,0.00,VWS V14.01,2013-01-22 07:51:00,